Somerset, Massachusetts
Current Conditions -  °F | °C
As of 1:53 PM on Thursday 30 Oct 2014 (Local Time) from KEWB Reporting Station
Clear Clear  
Wind Chill: 60°   Ceiling: Unl
Heat Index: 60°   Visibility: 10mi
Dew Point: 38°   Wind: 7mph
Humidity: 44%   Direction: 270°W
Pressure: 29.9"   Gusts: NA
Location:  41.75°N, 71.14°W
Report Text: KEWB 301753Z 27006KT 10SM CLR 16/03 A2990 RMK AO2 SLP124 T01560033 10161 20056 56013
Loading
Personal Weather Stations






























Interactive Weather Map
Tropical Storm Tracking
New forecast layout! Learn more

10-Day Weather Forecast

Advertisements
Track Severe Weather on mobile